Time;durP1;ratioP1;P1;durP2;ratioP2;P2;SDS_P1;SDS_P2;PMS_P1;PMS_P2;Temp;Humidity;BMP_temperature;BMP_pressure;BME280_temperature;BME280_humidity;BME280_pressure;Samples;Min_cycle;Max_cycle;Signal;HPM_P1;HPM_P2
2024/03/14 00:01:41;;;;;;;15.00;8.20;;;;;;;2.51;100.00;100348.20;106036;1257;65518;-55
2024/03/14 00:04:14;;;;;;;14.20;7.90;;;;;;;2.52;100.00;100348.20;106505;1261;72050;-55
2024/03/14 00:06:42;;;;;;;21.30;8.20;;;;;;;2.54;100.00;100343.05;106252;1259;60447;-57
2024/03/14 00:09:10;;;;;;;13.90;6.00;;;;;;;2.54;100.00;100340.21;105945;1255;60497;-55
2024/03/14 00:11:38;;;;;;;15.00;6.50;;;;;;;2.56;100.00;100340.89;106607;1258;74830;-56
2024/03/14 00:14:06;;;;;;;13.10;6.80;;;;;;;2.59;100.00;100332.02;105964;1254;65287;-55
2024/03/14 00:16:34;;;;;;;7.50;5.90;;;;;;;2.60;100.00;100329.36;105926;1256;71197;-55
2024/03/14 00:19:01;;;;;;;13.10;6.20;;;;;;;2.61;100.00;100329.18;105930;1260;60546;-56
2024/03/14 00:21:28;;;;;;;15.70;8.60;;;;;;;2.62;100.00;100330.07;105959;1254;60755;-56
2024/03/14 00:23:56;;;;;;;20.80;8.40;;;;;;;2.63;100.00;100322.98;105901;1260;72621;-56
2024/03/14 00:26:23;;;;;;;15.50;8.30;;;;;;;2.64;100.00;100322.59;106030;1254;65326;-56
2024/03/14 00:28:52;;;;;;;18.20;8.80;;;;;;;2.63;100.00;100320.31;105912;1256;71577;-55
2024/03/14 00:31:20;;;;;;;22.10;9.30;;;;;;;2.62;100.00;100318.73;106063;1254;61324;-59
2024/03/14 00:33:47;;;;;;;17.70;8.70;;;;;;;2.62;100.00;100321.21;105967;1254;62238;-56
2024/03/14 00:36:14;;;;;;;14.30;9.30;;;;;;;2.61;100.00;100324.93;105967;1255;72703;-56
2024/03/14 00:38:42;;;;;;;17.10;10.30;;;;;;;2.61;100.00;100330.42;106015;1259;67436;-56
2024/03/14 00:41:16;;;;;;;14.70;9.40;;;;;;;2.62;100.00;100332.19;105941;1259;72609;-56
2024/03/14 00:43:43;;;;;;;15.60;8.30;;;;;;;2.61;100.00;100330.25;106004;1260;61864;-55
2024/03/14 00:46:10;;;;;;;20.50;10.90;;;;;;;2.61;100.00;100325.64;106098;1256;60427;-55
2024/03/14 00:48:38;;;;;;;18.00;10.40;;;;;;;2.61;100.00;100325.29;106507;1256;72787;-55
2024/03/14 00:51:06;;;;;;;18.10;8.90;;;;;;;2.61;100.00;100330.07;106171;1270;67459;-55
2024/03/14 00:53:34;;;;;;;17.20;9.30;;;;;;;2.62;100.00;100329.54;106397;1255;71459;-57
2024/03/14 00:56:02;;;;;;;21.60;9.50;;;;;;;2.63;100.00;100330.23;106061;1256;60833;-55
2024/03/14 00:58:29;;;;;;;22.00;9.40;;;;;;;2.66;100.00;100329.84;106073;1259;60556;-55
2024/03/14 01:00:57;;;;;;;18.30;9.30;;;;;;;2.69;100.00;100331.08;107984;1257;71839;-56
2024/03/14 01:03:24;;;;;;;18.40;9.50;;;;;;;2.70;100.00;100326.29;106045;1261;67015;-57
2024/03/14 01:05:51;;;;;;;20.90;10.00;;;;;;;2.73;100.00;100324.66;106535;1254;72524;-56
2024/03/14 01:08:19;;;;;;;20.20;10.10;;;;;;;2.75;100.00;100319.49;106046;1258;61208;-56
2024/03/14 01:10:46;;;;;;;17.70;9.80;;;;;;;2.76;100.00;100318.08;106069;1254;60451;-57
2024/03/14 01:13:15;;;;;;;17.60;9.40;;;;;;;2.77;100.00;100320.21;106072;1258;72920;-56
2024/03/14 01:15:42;;;;;;;17.80;10.40;;;;;;;2.78;100.00;100321.27;106128;1269;67119;-56
2024/03/14 01:18:09;;;;;;;18.50;11.50;;;;;;;2.79;100.00;100322.15;106032;1259;71413;-55
2024/03/14 01:20:40;;;;;;;25.30;11.80;;;;;;;2.79;100.00;100325.69;106038;1256;61255;-55
2024/03/14 01:23:07;;;;;;;20.60;12.70;;;;;;;2.79;100.00;100319.66;106094;1256;60468;-55
2024/03/14 01:25:35;;;;;;;24.00;13.30;;;;;;;2.79;100.00;100317.89;106088;1266;74472;-56
2024/03/14 01:28:03;;;;;;;29.10;15.70;;;;;;;2.78;100.00;100314.52;106696;1257;67240;-56
2024/03/14 01:30:31;;;;;;;31.30;15.10;;;;;;;2.77;100.00;100315.41;106141;1258;72710;-56
2024/03/14 01:32:59;;;;;;;29.40;14.90;;;;;;;2.75;100.00;100312.59;106117;1257;60784;-55
2024/03/14 01:35:26;;;;;;;22.00;11.70;;;;;;;2.74;100.00;100307.27;107472;1258;60167;-55
2024/03/14 01:37:54;;;;;;;15.60;8.60;;;;;;;2.71;100.00;100303.24;106170;1259;73733;-55
2024/03/14 01:40:21;;;;;;;16.20;8.70;;;;;;;2.63;100.00;100303.48;106056;1260;65528;-55
2024/03/14 01:42:54;;;;;;;16.90;8.70;;;;;;;2.56;100.00;100299.80;106083;1269;72425;-56
2024/03/14 01:45:21;;;;;;;13.60;6.80;;;;;;;2.50;100.00;100301.27;106046;1254;60714;-56
2024/03/14 01:47:49;;;;;;;15.00;8.30;;;;;;;2.45;100.00;100307.32;106055;1258;60512;-55
2024/03/14 01:50:16;;;;;;;13.80;7.90;;;;;;;2.38;100.00;100311.27;106054;1256;73779;-56
2024/03/14 01:52:44;;;;;;;16.00;7.20;;;;;;;2.37;100.00;100308.98;106037;1256;66897;-56
2024/03/14 01:55:13;;;;;;;14.60;6.90;;;;;;;2.36;100.00;100309.34;106099;1259;71049;-55
2024/03/14 01:57:42;;;;;;;9.90;5.00;;;;;;;2.38;100.00;100306.84;106954;1255;60137;-54
2024/03/14 02:00:13;;;;;;;12.70;6.60;;;;;;;2.42;100.00;100308.05;105938;1254;60563;-54
2024/03/14 02:02:41;;;;;;;14.40;7.40;;;;;;;2.48;100.00;100310.66;106009;1254;73858;-55
2024/03/14 02:05:21;;;;;;;25.80;9.70;;;;;;;2.53;100.00;100311.52;106031;1260;65633;-54
2024/03/14 02:07:49;;;;;;;11.80;7.00;;;;;;;2.57;100.00;100311.30;105885;1256;70650;-56
2024/03/14 02:10:23;;;;;;;12.70;7.70;;;;;;;2.58;100.00;100304.92;105948;1261;60683;-55
2024/03/14 02:12:54;;;;;;;12.10;6.60;;;;;;;2.57;100.00;100306.16;106135;1255;60494;-54
2024/03/14 02:15:25;;;;;;;8.50;5.90;;;;;;;2.56;100.00;100304.04;105991;1256;72623;-55
2024/03/14 02:17:52;;;;;;;17.20;7.30;;;;;;;2.53;100.00;100306.38;105999;1259;64765;-55
2024/03/14 02:20:20;;;;;;;13.60;6.30;;;;;;;2.47;100.00;100308.71;106081;1258;73206;-56
2024/03/14 02:22:49;;;;;;;13.50;6.30;;;;;;;2.40;100.00;100302.57;106216;1254;61463;-57
2024/03/14 02:25:17;;;;;;;10.70;6.40;;;;;;;2.34;100.00;100302.27;106069;1258;63071;-55
2024/03/14 02:27:45;;;;;;;12.80;7.20;;;;;;;2.30;100.00;100305.64;106157;1256;73947;-56
2024/03/14 02:30:13;;;;;;;12.50;6.30;;;;;;;2.27;100.00;100305.31;106027;1258;66747;-57
2024/03/14 02:32:40;;;;;;;9.70;5.90;;;;;;;2.26;100.00;100299.12;105951;1255;71378;-55
2024/03/14 02:35:07;;;;;;;10.70;5.70;;;;;;;2.25;100.00;100302.84;105949;1253;60420;-56
2024/03/14 02:37:35;;;;;;;13.40;6.40;;;;;;;2.21;100.00;100302.70;105949;1256;60503;-56
2024/03/14 02:40:05;;;;;;;14.00;6.30;;;;;;;2.16;100.00;100304.13;105918;1256;71718;-55
2024/03/14 02:42:33;;;;;;;12.40;6.10;;;;;;;2.13;100.00;100308.92;107344;1256;65572;-57
2024/03/14 02:45:00;;;;;;;19.30;7.00;;;;;;;2.12;100.00;100309.13;105907;1260;71455;-55
2024/03/14 02:47:28;;;;;;;11.10;6.70;;;;;;;2.12;100.00;100309.12;106705;1256;61309;-55
2024/03/14 02:49:56;;;;;;;10.30;5.90;;;;;;;2.11;100.00;100311.08;106102;1255;60523;-57
2024/03/14 02:52:26;;;;;;;10.50;6.20;;;;;;;2.11;100.00;100308.06;107062;1255;73872;-56
2024/03/14 02:54:55;;;;;;;9.60;5.80;;;;;;;2.11;100.00;100306.30;106374;1255;65669;-56
2024/03/14 02:57:22;;;;;;;14.80;7.50;;;;;;;2.12;100.00;100306.30;106061;1254;73095;-55
2024/03/14 02:59:52;;;;;;;16.50;7.30;;;;;;;2.10;100.00;100301.70;105868;1259;60642;-56
2024/03/14 03:02:20;;;;;;;12.70;5.80;;;;;;;2.08;100.00;100303.83;106145;1258;60012;-56
2024/03/14 03:04:47;;;;;;;9.00;5.90;;;;;;;2.05;100.00;100304.71;106155;1259;73779;-56
2024/03/14 03:07:14;;;;;;;12.00;6.30;;;;;;;2.03;100.00;100311.65;106024;1254;67202;-55
2024/03/14 03:09:41;;;;;;;15.20;5.50;;;;;;;2.03;100.00;100311.83;106082;1255;72632;-56
2024/03/14 03:12:08;;;;;;;11.10;5.30;;;;;;;2.04;100.00;100307.91;106025;1255;60808;-56
2024/03/14 03:14:36;;;;;;;11.00;5.90;;;;;;;2.09;100.00;100307.36;106390;1257;61256;-57
2024/03/14 03:17:05;;;;;;;12.30;5.60;;;;;;;2.12;100.00;100309.82;106107;1260;72498;-56
2024/03/14 03:19:35;;;;;;;11.40;5.90;;;;;;;2.16;100.00;100306.79;106151;1261;67240;-56
2024/03/14 03:22:05;;;;;;;9.80;6.00;;;;;;;2.19;100.00;100308.02;106323;1255;71458;-56
2024/03/14 03:24:33;;;;;;;19.40;7.70;;;;;;;2.22;100.00;100309.23;106997;1254;60205;-56
2024/03/14 03:27:13;;;;;;;10.20;5.40;;;;;;;2.24;100.00;100303.90;106129;1256;60532;-56
2024/03/14 03:29:41;;;;;;;13.80;6.20;;;;;;;2.24;100.00;100304.45;106010;1254;72659;-56
2024/03/14 03:32:09;;;;;;;9.50;6.20;;;;;;;2.21;100.00;100312.60;106090;1271;65651;-56
2024/03/14 03:34:36;;;;;;;8.90;4.60;;;;;;;2.17;100.00;100312.80;105998;1271;72940;-56
2024/03/14 03:37:05;;;;;;;11.00;6.50;;;;;;;2.13;100.00;100313.35;106066;1261;61590;-56
2024/03/14 03:39:33;;;;;;;13.60;5.50;;;;;;;2.08;100.00;100314.97;106579;1259;60219;-55
2024/03/14 03:42:02;;;;;;;9.40;5.20;;;;;;;2.04;100.00;100316.24;106874;1256;73908;-56
2024/03/14 03:44:30;;;;;;;16.40;6.60;;;;;;;1.98;100.00;100311.83;106165;1254;66134;-56
2024/03/14 03:46:57;;;;;;;9.80;5.70;;;;;;;1.94;100.00;100315.05;106035;1255;73067;-55
2024/03/14 03:49:26;;;;;;;12.90;5.60;;;;;;;1.89;100.00;100311.52;108978;1253;58767;-56
2024/03/14 03:51:54;;;;;;;10.40;6.40;;;;;;;1.89;100.00;100311.16;106842;1258;60484;-57
2024/03/14 03:54:21;;;;;;;9.10;5.80;;;;;;;1.90;100.00;100309.74;106096;1254;72575;-55
2024/03/14 03:56:48;;;;;;;13.10;5.80;;;;;;;1.88;100.00;100309.21;107008;1256;67756;-57
2024/03/14 03:59:16;;;;;;;8.90;5.60;;;;;;;1.89;100.00;100312.05;106089;1254;71150;-56
2024/03/14 04:01:43;;;;;;;11.20;5.70;;;;;;;1.89;100.00;100307.27;106035;1254;60972;-55
2024/03/14 04:04:12;;;;;;;11.90;5.30;;;;;;;1.85;100.00;100308.54;106024;1256;60436;-55
2024/03/14 04:06:39;;;;;;;9.00;4.90;;;;;;;1.83;100.00;100308.73;108257;1254;73893;-56
2024/03/14 04:09:14;;;;;;;7.40;4.50;;;;;;;1.82;100.00;100309.08;106152;1254;66889;-55
2024/03/14 04:11:42;;;;;;;10.70;5.10;;;;;;;1.83;100.00;100312.09;109028;1254;71476;-57
2024/03/14 04:14:09;;;;;;;9.80;5.40;;;;;;;1.83;100.00;100308.02;108960;1254;60187;-57
2024/03/14 04:16:37;;;;;;;13.40;5.80;;;;;;;1.84;100.00;100308.55;106172;1256;60540;-55
2024/03/14 04:19:06;;;;;;;11.60;6.40;;;;;;;1.86;100.00;100304.64;106069;1259;72684;-56
2024/03/14 04:21:33;;;;;;;10.10;6.10;;;;;;;1.88;100.00;100313.63;109008;1255;66125;-57
2024/03/14 04:24:01;;;;;;;11.70;6.10;;;;;;;1.88;100.00;100313.28;108949;1255;71421;-56
2024/03/14 04:26:28;;;;;;;11.10;5.80;;;;;;;1.87;100.00;100311.88;108909;1254;61027;-56
2024/03/14 04:28:56;;;;;;;10.50;5.60;;;;;;;1.88;100.00;100314.52;109061;1254;60069;-56
2024/03/14 04:31:23;;;;;;;8.20;4.80;;;;;;;1.89;100.00;100318.42;108945;1254;73789;-58
2024/03/14 04:33:50;;;;;;;10.20;5.20;;;;;;;1.88;100.00;100323.20;107698;1260;67171;-57
2024/03/14 04:36:18;;;;;;;16.40;5.70;;;;;;;1.86;100.00;100328.36;106068;1257;71454;-56
2024/03/14 04:38:46;;;;;;;8.40;5.00;;;;;;;1.88;100.00;100331.69;106025;1257;60432;-56
2024/03/14 04:41:14;;;;;;;8.30;4.70;;;;;;;1.89;100.00;100333.99;106733;1256;60486;-55
2024/03/14 04:43:46;;;;;;;10.80;5.40;;;;;;;1.90;100.00;100337.36;106189;1258;72628;-57
2024/03/14 04:46:14;;;;;;;12.60;4.80;;;;;;;1.91;100.00;100340.02;106840;1256;65885;-56
2024/03/14 04:48:41;;;;;;;9.60;5.60;;;;;;;1.91;100.00;100341.95;105981;1256;71285;-56
2024/03/14 04:51:11;;;;;;;12.20;6.80;;;;;;;1.93;100.00;100345.32;106131;1256;60340;-56
2024/03/14 04:53:41;;;;;;;18.90;7.90;;;;;;;1.95;100.00;100343.71;106058;1258;60480;-56
2024/03/14 04:56:08;;;;;;;20.30;8.40;;;;;;;1.96;100.00;100343.52;106192;1259;74357;-56
2024/03/14 04:58:37;;;;;;;19.00;8.20;;;;;;;1.98;100.00;100343.17;106233;1254;66918;-56
2024/03/14 05:01:05;;;;;;;16.30;7.10;;;;;;;1.96;100.00;100343.17;107886;1258;74784;-56
2024/03/14 05:03:33;;;;;;;13.90;6.70;;;;;;;1.96;100.00;100344.41;106624;1254;60600;-56
2024/03/14 05:06:03;;;;;;;15.50;6.70;;;;;;;1.96;100.00;100343.00;106101;1258;61223;-56
2024/03/14 05:08:31;;;;;;;16.90;7.20;;;;;;;1.96;100.00;100348.32;108956;1254;74846;-59
2024/03/14 05:10:58;;;;;;;12.00;6.60;;;;;;;1.98;100.00;100349.36;106336;1255;67036;-56
2024/03/14 05:13:26;;;;;;;9.80;5.90;;;;;;;2.01;100.00;100353.25;106024;1258;72453;-55
2024/03/14 05:15:55;;;;;;;12.00;5.60;;;;;;;2.04;100.00;100351.11;106269;1256;60537;-55
2024/03/14 05:18:23;;;;;;;12.60;6.10;;;;;;;2.09;100.00;100353.74;106898;1255;60590;-55
2024/03/14 05:20:53;;;;;;;18.50;5.40;;;;;;;2.15;100.00;100358.85;106492;1254;73819;-56
2024/03/14 05:23:21;;;;;;;10.90;6.30;;;;;;;2.20;100.00;100355.45;106018;1258;64687;-57
2024/03/14 05:25:48;;;;;;;11.30;5.30;;;;;;;2.28;100.00;100355.95;106027;1261;72752;-57
2024/03/14 05:28:16;;;;;;;11.60;4.80;;;;;;;2.35;100.00;100361.06;105940;1270;60492;-57
2024/03/14 05:30:44;;;;;;;13.60;5.80;;;;;;;2.40;100.00;100359.97;106433;1259;60827;-55
2024/03/14 05:33:11;;;;;;;9.50;6.30;;;;;;;2.43;100.00;100357.99;105997;1256;73863;-55
2024/03/14 05:35:39;;;;;;;11.40;7.10;;;;;;;2.44;100.00;100358.17;106005;1254;65654;-56
2024/03/14 05:38:08;;;;;;;12.00;7.30;;;;;;;2.44;100.00;100363.66;106068;1260;71475;-56
2024/03/14 05:40:36;;;;;;;12.00;6.40;;;;;;;2.43;100.00;100366.15;106249;1259;60565;-56
2024/03/14 05:43:03;;;;;;;10.60;6.70;;;;;;;2.43;100.00;100369.33;106017;1260;60918;-57
2024/03/14 05:45:34;;;;;;;9.70;5.80;;;;;;;2.44;100.00;100368.80;106048;1255;73955;-56
2024/03/14 05:48:09;;;;;;;10.10;4.60;;;;;;;2.42;100.00;100371.82;108134;1256;65501;-55
2024/03/14 05:50:37;;;;;;;15.10;5.60;;;;;;;2.39;100.00;100372.71;106416;1256;72911;-56
2024/03/14 05:53:05;;;;;;;9.80;4.40;;;;;;;2.35;100.00;100372.92;106243;1257;60381;-57
2024/03/14 05:55:32;;;;;;;8.90;5.30;;;;;;;2.31;100.00;100371.16;108987;1255;60469;-57
2024/03/14 05:58:00;;;;;;;6.10;3.70;;;;;;;2.25;100.00;100372.97;108914;1255;73954;-57
2024/03/14 06:00:29;;;;;;;5.90;3.80;;;;;;;2.19;100.00;100376.37;108938;1254;65857;-56
2024/03/14 06:02:56;;;;;;;8.10;3.80;;;;;;;2.14;100.00;100372.65;108899;1254;72777;-57
2024/03/14 06:05:24;;;;;;;5.80;4.00;;;;;;;2.11;100.00;100366.49;106235;1256;60646;-56
2024/03/14 06:07:51;;;;;;;6.70;3.80;;;;;;;2.09;100.00;100364.02;105916;1255;60550;-56
2024/03/14 06:10:19;;;;;;;6.00;3.90;;;;;;;2.09;100.00;100358.53;105996;1257;74301;-56
2024/03/14 06:12:46;;;;;;;3.60;2.30;;;;;;;2.11;100.00;100357.10;106035;1258;65682;-57
2024/03/14 06:15:13;;;;;;;4.90;2.40;;;;;;;2.15;100.00;100360.96;106014;1259;72762;-57
2024/03/14 06:17:42;;;;;;;7.10;3.30;;;;;;;2.19;100.00;100357.05;106125;1259;60534;-57
2024/03/14 06:20:11;;;;;;;5.80;2.90;;;;;;;2.23;100.00;100362.17;106380;1254;60499;-55
2024/03/14 06:22:44;;;;;;;5.30;2.70;;;;;;;2.27;100.00;100373.85;105952;1254;72693;-55
2024/03/14 06:25:12;;;;;;;7.80;4.90;;;;;;;2.32;100.00;100382.66;106443;1258;66782;-57
2024/03/14 06:27:41;;;;;;;9.90;4.40;;;;;;;2.33;100.00;100379.84;106163;1259;73184;-55
2024/03/14 06:30:09;;;;;;;9.10;4.50;;;;;;;2.23;100.00;100379.17;106749;1254;60515;-55
2024/03/14 06:32:41;;;;;;;12.00;4.20;;;;;;;2.15;100.00;100382.04;106203;1259;60417;-55
2024/03/14 06:35:09;;;;;;;9.30;4.00;;;;;;;2.12;100.00;100383.83;107230;1256;73919;-54
2024/03/14 06:37:37;;;;;;;14.20;6.70;;;;;;;2.10;100.00;100390.92;107042;1258;69155;-54
2024/03/14 06:40:05;;;;;;;10.40;5.70;;;;;;;2.06;100.00;100385.27;105973;1258;71508;-55
2024/03/14 06:42:35;;;;;;;7.40;4.00;;;;;;;2.05;100.00;100384.37;106090;1259;63539;-54
2024/03/14 06:45:04;;;;;;;10.90;4.20;;;;;;;2.03;100.00;100384.76;106039;1258;60761;-55
2024/03/14 06:47:33;;;;;;;7.00;3.50;;;;;;;2.00;100.00;100395.92;109085;1255;74802;-57
2024/03/14 06:50:03;;;;;;;5.60;2.80;;;;;;;2.01;100.00;100397.86;106897;1258;67527;-56
2024/03/14 06:52:30;;;;;;;6.60;3.20;;;;;;;2.04;100.00;100398.89;108859;1256;74258;-55
2024/03/14 06:54:58;;;;;;;3.90;3.50;;;;;;;2.07;100.00;100397.83;108885;1255;60956;-55
2024/03/14 06:57:25;;;;;;;7.30;3.00;;;;;;;2.11;100.00;100400.13;108944;1254;58895;-56
2024/03/14 06:59:52;;;;;;;7.40;3.00;;;;;;;2.15;100.00;100407.89;108900;1254;74072;-56
2024/03/14 07:02:21;;;;;;;4.10;3.50;;;;;;;2.17;100.00;100404.35;108962;1254;69750;-56
2024/03/14 07:04:48;;;;;;;6.40;4.30;;;;;;;2.16;100.00;100406.30;108984;1254;71498;-56
2024/03/14 07:07:16;;;;;;;9.40;3.80;;;;;;;2.12;100.00;100399.23;108867;1256;59957;-55
2024/03/14 07:09:45;;;;;;;8.10;4.20;;;;;;;2.09;100.00;100397.83;107636;1258;60409;-55
2024/03/14 07:12:15;;;;;;;6.30;5.00;;;;;;;2.04;100.00;100399.96;105961;1256;72681;-55
2024/03/14 07:14:42;;;;;;;5.90;4.80;;;;;;;2.01;100.00;100398.22;105933;1258;66217;-55
2024/03/14 07:17:10;;;;;;;6.80;4.60;;;;;;;2.01;100.00;100403.35;105963;1259;71646;-54
2024/03/14 07:19:37;;;;;;;5.90;3.90;;;;;;;2.03;100.00;100402.28;105910;1261;61305;-56
2024/03/14 07:22:05;;;;;;;6.70;4.50;;;;;;;2.05;100.00;100399.41;106193;1261;60325;-54
2024/03/14 07:24:32;;;;;;;5.40;3.90;;;;;;;2.06;100.00;100405.44;106029;1256;72940;-55
2024/03/14 07:27:00;;;;;;;5.50;4.60;;;;;;;2.11;100.00;100408.09;105872;1261;66959;-55
2024/03/14 07:29:28;;;;;;;7.50;4.80;;;;;;;2.16;100.00;100403.81;105941;1256;72766;-55
2024/03/14 07:31:55;;;;;;;8.60;4.70;;;;;;;2.22;100.00;100401.14;105959;1256;61002;-55
2024/03/14 07:34:25;;;;;;;8.40;5.20;;;;;;;2.29;100.00;100402.35;105961;1258;60990;-56
2024/03/14 07:36:52;;;;;;;9.70;5.90;;;;;;;2.38;100.00;100406.20;108003;1255;74439;-56
2024/03/14 07:39:25;;;;;;;9.40;5.90;;;;;;;2.44;100.00;100411.14;105998;1256;67385;-56
2024/03/14 07:41:52;;;;;;;6.40;5.80;;;;;;;2.49;100.00;100413.58;105965;1257;72830;-55
2024/03/14 07:44:20;;;;;;;7.40;6.40;;;;;;;2.51;100.00;100418.89;106054;1254;60838;-55
2024/03/14 07:47:00;;;;;;;8.90;6.70;;;;;;;2.51;100.00;100416.23;106023;1259;60451;-55
2024/03/14 07:49:31;;;;;;;8.00;6.40;;;;;;;2.50;100.00;100413.58;106540;1256;72800;-55
2024/03/14 07:51:58;;;;;;;8.80;7.40;;;;;;;2.51;100.00;100414.47;105957;1255;67067;-55
2024/03/14 07:54:27;;;;;;;10.50;8.70;;;;;;;2.51;100.00;100413.05;106083;1259;71873;-56
2024/03/14 07:56:54;;;;;;;10.70;8.10;;;;;;;2.52;100.00;100418.71;106375;1256;60511;-56
2024/03/14 08:01:58;;;;;;;10.60;8.60;;;;;;;2.54;100.00;100416.05;102741;1295;600459;-55
2024/03/14 08:04:26;;;;;;;9.00;6.90;;;;;;;2.56;100.00;100420.10;107664;1270;59731;-55
2024/03/14 08:06:55;;;;;;;11.00;6.90;;;;;;;2.62;100.00;100417.95;105147;1267;59401;-56
2024/03/14 08:09:26;;;;;;;10.10;7.40;;;;;;;2.69;100.00;100421.10;105164;1267;72719;-55
2024/03/14 08:11:54;;;;;;;9.20;7.00;;;;;;;2.76;100.00;100423.35;105298;1280;66177;-57
2024/03/14 08:14:22;;;;;;;7.80;7.00;;;;;;;2.82;100.00;100426.52;105866;1267;71493;-57
2024/03/14 08:16:49;;;;;;;13.20;10.20;;;;;;;2.86;100.00;100428.62;105173;1266;202809;-56
2024/03/14 08:19:18;;;;;;;14.20;11.00;;;;;;;2.88;100.00;100427.54;105232;1273;59437;-55
2024/03/14 08:21:47;;;;;;;12.30;10.90;;;;;;;2.88;100.00;100430.73;105691;1270;71022;-55
2024/03/14 08:24:16;;;;;;;19.30;13.80;;;;;;;2.83;100.00;100432.00;105707;1265;64741;-55
2024/03/14 08:26:46;;;;;;;22.50;14.20;;;;;;;2.77;100.00;100429.56;105902;1265;71818;-56
2024/03/14 08:29:14;;;;;;;21.70;15.50;;;;;;;2.72;100.00;100427.45;106340;1257;59690;-58
2024/03/14 08:31:43;;;;;;;19.40;14.90;;;;;;;2.66;100.00;100429.79;105684;1264;60098;-57
2024/03/14 08:34:11;;;;;;;16.60;14.50;;;;;;;2.62;100.00;100427.35;105844;1263;71538;-56
2024/03/14 08:36:40;;;;;;;19.40;13.40;;;;;;;2.63;100.00;100426.63;105911;1262;69239;-56
2024/03/14 08:39:11;;;;;;;19.70;14.20;;;;;;;2.69;100.00;100426.95;106086;1257;71674;-57
2024/03/14 08:41:39;;;;;;;21.80;15.10;;;;;;;2.79;100.00;100432.20;105872;1260;61347;-56
2024/03/14 08:44:06;;;;;;;17.40;14.70;;;;;;;2.89;100.00;100428.23;105890;1262;60165;-57
2024/03/14 08:46:34;;;;;;;26.50;15.10;;;;;;;3.02;100.00;100426.91;105867;1257;71865;-57
2024/03/14 08:49:02;;;;;;;22.80;15.30;;;;;;;3.17;100.00;100422.20;105803;1262;65668;-55
2024/03/14 08:51:31;;;;;;;17.00;14.40;;;;;;;3.35;100.00;100423.99;105759;1275;74230;-56
2024/03/14 08:54:09;;;;;;;18.60;14.30;;;;;;;3.51;100.00;100420.48;106033;1266;59735;-57
2024/03/14 08:56:37;;;;;;;18.30;12.90;;;;;;;3.64;100.00;100420.00;105809;1258;60582;-57
2024/03/14 08:59:05;;;;;;;21.80;13.30;;;;;;;3.75;100.00;100417.94;106146;1257;71791;-56
2024/03/14 09:01:32;;;;;;;13.60;11.00;;;;;;;3.83;100.00;100423.88;105903;1262;65411;-55
2024/03/14 09:03:59;;;;;;;16.60;12.80;;;;;;;3.86;100.00;100426.34;105886;1262;72688;-55
2024/03/14 09:06:28;;;;;;;16.00;13.40;;;;;;;3.78;100.00;100427.86;105868;1262;59985;-56
2024/03/14 09:09:04;;;;;;;24.50;16.00;;;;;;;3.68;100.00;100426.88;106057;1259;59643;-55
2024/03/14 09:11:34;;;;;;;20.60;14.80;;;;;;;3.65;100.00;100418.75;105841;1258;74908;-55
2024/03/14 09:14:05;;;;;;;20.30;14.70;;;;;;;3.66;100.00;100421.39;105872;1263;69639;-55
2024/03/14 09:16:37;;;;;;;19.00;14.80;;;;;;;3.68;100.00;100421.90;106196;1253;72712;-52
2024/03/14 09:19:05;;;;;;;20.10;13.30;;;;;;;3.71;100.00;100421.89;105928;1256;63369;-54
2024/03/14 09:21:32;;;;;;;18.20;13.70;;;;;;;3.69;100.00;100420.84;106018;1255;59894;-55
2024/03/14 09:24:00;;;;;;;19.10;12.80;;;;;;;3.70;100.00;100420.65;106070;1253;75500;-55
2024/03/14 09:26:29;;;;;;;12.70;10.60;;;;;;;3.81;100.00;100417.70;109143;1253;66712;-55
2024/03/14 09:28:57;;;;;;;12.50;10.50;;;;;;;3.94;100.00;100420.75;109041;1254;71419;-55
2024/03/14 09:31:25;;;;;;;17.90;12.90;;;;;;;4.02;100.00;100422.09;108158;1253;59405;-55
2024/03/14 09:33:52;;;;;;;16.20;11.30;;;;;;;4.11;100.00;100420.02;106045;1261;59655;-55
2024/03/14 09:36:20;;;;;;;17.40;12.80;;;;;;;4.21;100.00;100422.23;105944;1260;72287;-57
2024/03/14 09:38:47;;;;;;;13.00;10.50;;;;;;;4.26;100.00;100425.72;106615;1258;66080;-56
2024/03/14 09:41:16;;;;;;;15.80;12.90;;;;;;;4.30;100.00;100423.89;106016;1256;72721;-54
2024/03/14 09:43:50;;;;;;;15.30;13.70;;;;;;;4.33;100.00;100425.98;108936;1254;59374;-55
2024/03/14 09:46:22;;;;;;;14.60;12.20;;;;;;;4.35;100.00;100425.23;109084;1256;60678;-54
2024/03/14 09:48:51;;;;;;;13.40;11.70;;;;;;;4.31;100.00;100422.64;109046;1253;72007;-54
2024/03/14 09:51:18;;;;;;;18.60;13.10;;;;;;;4.22;100.00;100427.02;108476;1254;67825;-58
2024/03/14 09:53:46;;;;;;;16.90;12.40;;;;;;;4.18;100.00;100421.01;108953;1253;71489;-55
2024/03/14 09:56:13;;;;;;;29.50;14.70;;;;;;;4.17;100.00;100418.35;109034;1254;59906;-55
2024/03/14 09:58:41;;;;;;;18.30;13.50;;;;;;;4.16;100.00;100414.13;108881;1253;60177;-57
2024/03/14 10:01:09;;;;;;;17.00;12.80;;;;;;;4.17;100.00;100414.10;108948;1254;73553;-56
2024/03/14 10:03:38;;;;;;;23.40;12.40;;;;;;;4.17;100.00;100415.87;108873;1254;66055;-56
2024/03/14 10:06:15;;;;;;;16.00;13.90;;;;;;;4.21;100.00;100412.45;109000;1254;73844;-56
2024/03/14 10:08:44;;;;;;;17.40;13.60;;;;;;;4.21;100.00;100411.75;108821;1258;59445;-59
2024/03/14 10:11:13;;;;;;;16.70;11.80;;;;;;;4.23;100.00;100414.05;106480;1258;60239;-55
2024/03/14 10:13:43;;;;;;;16.70;13.50;;;;;;;4.28;100.00;100413.61;108953;1253;72433;-54
2024/03/14 10:16:11;;;;;;;16.10;12.00;;;;;;;4.29;100.00;100414.48;108913;1254;67429;-56
2024/03/14 10:18:39;;;;;;;15.30;12.60;;;;;;;4.24;100.00;100409.41;109113;1255;72693;-56
2024/03/14 10:21:07;;;;;;;17.30;11.40;;;;;;;4.26;100.00;100411.50;109009;1254;58072;-58
2024/03/14 10:23:39;;;;;;;16.10;12.50;;;;;;;4.29;100.00;100408.09;106243;1255;59671;-56
2024/03/14 10:26:09;;;;;;;22.40;12.30;;;;;;;4.30;100.00;100404.52;106115;1259;71594;-56
2024/03/14 10:28:39;;;;;;;20.10;10.80;;;;;;;4.32;100.00;100410.55;105973;1258;68137;-57
2024/03/14 10:31:07;;;;;;;15.30;10.70;;;;;;;4.32;100.00;100407.36;107063;1255;71696;-55
2024/03/14 10:33:37;;;;;;;14.80;9.80;;;;;;;4.34;100.00;100411.06;107902;1255;59770;-56
2024/03/14 10:36:06;;;;;;;13.10;9.80;;;;;;;4.38;100.00;100412.23;105980;1260;59741;-56
2024/03/14 10:38:37;;;;;;;12.00;9.40;;;;;;;4.46;100.00;100414.45;105978;1257;71820;-57
2024/03/14 10:41:09;;;;;;;15.70;10.70;;;;;;;4.53;100.00;100414.52;106148;1260;66256;-55
2024/03/14 10:43:40;;;;;;;11.60;9.20;;;;;;;4.62;100.00;100415.30;106326;1260;73204;-58
2024/03/14 10:46:15;;;;;;;11.60;8.20;;;;;;;4.69;100.00;100416.98;106027;1256;60498;-57
2024/03/14 10:48:47;;;;;;;12.80;8.00;;;;;;;4.73;100.00;100413.90;106196;1255;60268;-56
2024/03/14 10:51:16;;;;;;;11.40;8.70;;;;;;;4.78;100.00;100412.77;106137;1259;73664;-56
2024/03/14 10:53:45;;;;;;;13.30;8.00;;;;;;;4.82;100.00;100413.42;106033;1259;65756;-56
2024/03/14 10:56:15;;;;;;;12.10;8.60;;;;;;;4.86;100.00;100412.64;106155;1257;72948;-56
2024/03/14 10:58:43;;;;;;;12.50;8.40;;;;;;;4.90;100.00;100409.75;106070;1258;61677;-55
2024/03/14 11:01:11;;;;;;;10.30;8.30;;;;;;;4.92;100.00;100411.14;106334;1260;61177;-56
2024/03/14 11:03:38;;;;;;;10.00;8.00;;;;;;;4.90;100.00;100409.92;106166;1254;73187;-56
2024/03/14 11:06:12;;;;;;;16.00;8.60;;;;;;;4.90;100.00;100409.39;106061;1254;67411;-56
2024/03/14 11:08:43;;;;;;;15.20;7.60;;;;;;;4.88;100.00;100410.12;105987;1258;71483;-55
2024/03/14 11:11:17;;;;;;;12.30;7.30;;;;;;;4.86;100.00;100413.16;106006;1261;59649;-55
2024/03/14 11:13:49;;;;;;;9.00;7.30;;;;;;;4.85;100.00;100413.90;105959;1262;60773;-55
2024/03/14 11:16:18;;;;;;;9.40;7.10;;;;;;;4.79;100.00;100414.34;106109;1261;73541;-55
2024/03/14 11:18:53;;;;;;;9.40;7.60;;;;;;;4.78;100.00;100410.45;106146;1258;65472;-55